sensor_id;sensor_type;location;lat;lon;timestamp;temperature;humidity
32322;DHT22;61553;48.994;8.940;2023-12-28T00:00:17;-0.40;99.90
32322;DHT22;61553;48.994;8.940;2023-12-28T00:02:43;-0.40;99.90
32322;DHT22;61553;48.994;8.940;2023-12-28T00:05:08;-0.50;99.90
32322;DHT22;61553;48.994;8.940;2023-12-28T00:07:34;-0.40;99.90
32322;DHT22;61553;48.994;8.940;2023-12-28T00:10:01;-0.40;99.90
32322;DHT22;61553;48.994;8.940;2023-12-28T00:12:27;-0.40;99.90
32322;DHT22;61553;48.994;8.940;2023-12-28T00:14:53;-0.40;99.90
32322;DHT22;61553;48.994;8.940;2023-12-28T00:17:19;-0.40;99.90
32322;DHT22;61553;48.994;8.940;2023-12-28T00:19:44;-0.10;99.90
32322;DHT22;61553;48.994;8.940;2023-12-28T00:22:10;-0.50;99.90
32322;DHT22;61553;48.994;8.940;2023-12-28T00:24:35;-0.50;99.90
32322;DHT22;61553;48.994;8.940;2023-12-28T00:27:01;0.30;99.90
32322;DHT22;61553;48.994;8.940;2023-12-28T00:29:27;-0.50;99.90
32322;DHT22;61553;48.994;8.940;2023-12-28T00:31:54;-0.50;99.90
32322;DHT22;61553;48.994;8.940;2023-12-28T00:34:19;-0.50;99.90
32322;DHT22;61553;48.994;8.940;2023-12-28T00:36:45;-0.50;99.90
32322;DHT22;61553;48.994;8.940;2023-12-28T00:39:11;-0.60;99.90
32322;DHT22;61553;48.994;8.940;2023-12-28T00:41:36;-0.50;99.90
32322;DHT22;61553;48.994;8.940;2023-12-28T00:44:02;-0.50;99.90
32322;DHT22;61553;48.994;8.940;2023-12-28T00:46:28;-0.50;99.90
32322;DHT22;61553;48.994;8.940;2023-12-28T00:48:54;-0.50;99.90
32322;DHT22;61553;48.994;8.940;2023-12-28T00:51:20;-0.50;99.90
32322;DHT22;61553;48.994;8.940;2023-12-28T00:53:46;-0.60;99.90
32322;DHT22;61553;48.994;8.940;2023-12-28T00:56:12;-0.60;99.90
32322;DHT22;61553;48.994;8.940;2023-12-28T00:58:40;-0.60;99.90
32322;DHT22;61553;48.994;8.940;2023-12-28T01:01:08;-0.60;99.90
32322;DHT22;61553;48.994;8.940;2023-12-28T01:03:34;-0.60;99.90
32322;DHT22;61553;48.994;8.940;2023-12-28T01:05:59;-0.50;99.90
32322;DHT22;61553;48.994;8.940;2023-12-28T01:08:25;-0.40;99.90
32322;DHT22;61553;48.994;8.940;2023-12-28T01:10:50;-0.50;99.90
32322;DHT22;61553;48.994;8.940;2023-12-28T01:13:16;-0.50;99.90
32322;DHT22;61553;48.994;8.940;2023-12-28T01:15:42;-0.40;99.90
32322;DHT22;61553;48.994;8.940;2023-12-28T01:18:08;-0.40;99.90
32322;DHT22;61553;48.994;8.940;2023-12-28T01:20:34;-0.20;99.90
32322;DHT22;61553;48.994;8.940;2023-12-28T01:23:00;-0.50;99.90
32322;DHT22;61553;48.994;8.940;2023-12-28T01:25:26;-0.40;99.90
32322;DHT22;61553;48.994;8.940;2023-12-28T01:27:52;-0.50;99.90
32322;DHT22;61553;48.994;8.940;2023-12-28T01:30:17;0.00;99.90
32322;DHT22;61553;48.994;8.940;2023-12-28T01:32:43;-0.50;99.90
32322;DHT22;61553;48.994;8.940;2023-12-28T01:35:09;-0.50;99.90
32322;DHT22;61553;48.994;8.940;2023-12-28T01:37:34;-0.60;99.90
32322;DHT22;61553;48.994;8.940;2023-12-28T01:40:00;-0.60;99.90
32322;DHT22;61553;48.994;8.940;2023-12-28T01:42:26;-0.60;99.90
32322;DHT22;61553;48.994;8.940;2023-12-28T01:44:52;-0.70;99.90
32322;DHT22;61553;48.994;8.940;2023-12-28T01:47:18;-0.60;99.90
32322;DHT22;61553;48.994;8.940;2023-12-28T01:49:44;-0.60;99.90
32322;DHT22;61553;48.994;8.940;2023-12-28T01:52:10;-0.40;99.90
32322;DHT22;61553;48.994;8.940;2023-12-28T01:54:37;-0.50;99.90
32322;DHT22;61553;48.994;8.940;2023-12-28T01:57:03;-0.50;99.90
32322;DHT22;61553;48.994;8.940;2023-12-28T01:59:30;-0.50;99.90
32322;DHT22;61553;48.994;8.940;2023-12-28T02:01:57;-0.50;99.90
32322;DHT22;61553;48.994;8.940;2023-12-28T02:04:23;-0.50;99.90
32322;DHT22;61553;48.994;8.940;2023-12-28T02:06:59;-0.60;99.90
32322;DHT22;61553;48.994;8.940;2023-12-28T02:09:25;-0.60;99.90
32322;DHT22;61553;48.994;8.940;2023-12-28T02:11:51;-0.50;99.90
32322;DHT22;61553;48.994;8.940;2023-12-28T02:14:17;-0.50;99.90
32322;DHT22;61553;48.994;8.940;2023-12-28T02:19:31;-0.40;99.90
32322;DHT22;61553;48.994;8.940;2023-12-28T02:21:59;-0.40;99.90
32322;DHT22;61553;48.994;8.940;2023-12-28T02:24:25;-0.40;99.90
32322;DHT22;61553;48.994;8.940;2023-12-28T02:26:50;-0.40;99.90
32322;DHT22;61553;48.994;8.940;2023-12-28T02:29:16;-0.40;99.90
32322;DHT22;61553;48.994;8.940;2023-12-28T02:32:04;-0.40;99.90
32322;DHT22;61553;48.994;8.940;2023-12-28T02:34:36;-0.40;99.90
32322;DHT22;61553;48.994;8.940;2023-12-28T02:37:03;-0.40;99.90
32322;DHT22;61553;48.994;8.940;2023-12-28T02:39:30;-0.20;99.90
32322;DHT22;61553;48.994;8.940;2023-12-28T02:41:56;-0.20;99.90
32322;DHT22;61553;48.994;8.940;2023-12-28T02:44:22;-0.10;99.90
32322;DHT22;61553;48.994;8.940;2023-12-28T02:46:47;-0.10;99.90
32322;DHT22;61553;48.994;8.940;2023-12-28T02:49:13;0.00;99.90
32322;DHT22;61553;48.994;8.940;2023-12-28T02:51:40;0.80;99.90
32322;DHT22;61553;48.994;8.940;2023-12-28T02:54:08;0.10;99.90
32322;DHT22;61553;48.994;8.940;2023-12-28T02:56:33;0.20;99.90
32322;DHT22;61553;48.994;8.940;2023-12-28T02:58:59;0.40;99.90
32322;DHT22;61553;48.994;8.940;2023-12-28T03:01:25;0.40;99.90
32322;DHT22;61553;48.994;8.940;2023-12-28T03:03:51;0.40;99.90
32322;DHT22;61553;48.994;8.940;2023-12-28T03:06:16;0.60;99.90
32322;DHT22;61553;48.994;8.940;2023-12-28T03:08:42;0.50;99.90
32322;DHT22;61553;48.994;8.940;2023-12-28T03:11:07;0.60;99.90
32322;DHT22;61553;48.994;8.940;2023-12-28T03:13:33;0.80;99.90
32322;DHT22;61553;48.994;8.940;2023-12-28T03:15:59;0.70;99.90
32322;DHT22;61553;48.994;8.940;2023-12-28T03:18:24;0.80;99.90
32322;DHT22;61553;48.994;8.940;2023-12-28T03:20:50;0.90;99.90
32322;DHT22;61553;48.994;8.940;2023-12-28T03:23:15;1.10;99.90
32322;DHT22;61553;48.994;8.940;2023-12-28T03:25:41;1.20;99.90
32322;DHT22;61553;48.994;8.940;2023-12-28T03:28:07;1.30;99.90
32322;DHT22;61553;48.994;8.940;2023-12-28T03:30:32;1.40;99.90
32322;DHT22;61553;48.994;8.940;2023-12-28T03:32:58;1.60;99.90
32322;DHT22;61553;48.994;8.940;2023-12-28T03:35:23;1.70;99.90
32322;DHT22;61553;48.994;8.940;2023-12-28T03:37:49;1.80;99.90
32322;DHT22;61553;48.994;8.940;2023-12-28T03:40:15;1.90;99.90
32322;DHT22;61553;48.994;8.940;2023-12-28T03:42:40;2.10;99.90
32322;DHT22;61553;48.994;8.940;2023-12-28T03:45:06;2.30;99.90
32322;DHT22;61553;48.994;8.940;2023-12-28T03:47:32;2.40;99.90
32322;DHT22;61553;48.994;8.940;2023-12-28T03:49:58;2.70;99.90
32322;DHT22;61553;48.994;8.940;2023-12-28T03:52:26;3.10;99.90
32322;DHT22;61553;48.994;8.940;2023-12-28T03:54:52;3.40;99.90
32322;DHT22;61553;48.994;8.940;2023-12-28T03:57:17;3.90;99.90
32322;DHT22;61553;48.994;8.940;2023-12-28T03:59:43;4.30;99.90
32322;DHT22;61553;48.994;8.940;2023-12-28T04:02:08;4.70;99.90
32322;DHT22;61553;48.994;8.940;2023-12-28T04:04:34;5.10;99.90
32322;DHT22;61553;48.994;8.940;2023-12-28T04:07:00;5.30;99.90
32322;DHT22;61553;48.994;8.940;2023-12-28T04:09:25;5.60;99.90
32322;DHT22;61553;48.994;8.940;2023-12-28T04:11:51;6.00;99.90
32322;DHT22;61553;48.994;8.940;2023-12-28T04:14:16;6.40;99.90
32322;DHT22;61553;48.994;8.940;2023-12-28T04:16:42;6.70;99.90
32322;DHT22;61553;48.994;8.940;2023-12-28T04:19:08;7.00;99.90
32322;DHT22;61553;48.994;8.940;2023-12-28T04:21:33;7.20;99.90
32322;DHT22;61553;48.994;8.940;2023-12-28T04:23:59;7.40;99.90
32322;DHT22;61553;48.994;8.940;2023-12-28T04:26:25;7.50;99.90
32322;DHT22;61553;48.994;8.940;2023-12-28T04:28:50;7.60;99.90
32322;DHT22;61553;48.994;8.940;2023-12-28T04:31:16;7.60;99.90
32322;DHT22;61553;48.994;8.940;2023-12-28T04:33:41;7.60;99.90
32322;DHT22;61553;48.994;8.940;2023-12-28T04:36:07;7.60;99.90
32322;DHT22;61553;48.994;8.940;2023-12-28T04:38:33;7.70;99.90
32322;DHT22;61553;48.994;8.940;2023-12-28T04:40:59;7.80;99.90
32322;DHT22;61553;48.994;8.940;2023-12-28T04:43:25;7.90;99.90
32322;DHT22;61553;48.994;8.940;2023-12-28T04:45:51;8.00;99.90
32322;DHT22;61553;48.994;8.940;2023-12-28T04:48:17;8.10;99.90
32322;DHT22;61553;48.994;8.940;2023-12-28T04:50:47;8.20;99.90
32322;DHT22;61553;48.994;8.940;2023-12-28T04:53:13;8.30;99.90
32322;DHT22;61553;48.994;8.940;2023-12-28T04:55:39;8.30;99.90
32322;DHT22;61553;48.994;8.940;2023-12-28T04:58:04;8.40;99.90
32322;DHT22;61553;48.994;8.940;2023-12-28T05:00:30;8.40;99.90
32322;DHT22;61553;48.994;8.940;2023-12-28T05:02:56;8.50;99.90
32322;DHT22;61553;48.994;8.940;2023-12-28T05:05:21;8.60;99.90
32322;DHT22;61553;48.994;8.940;2023-12-28T05:07:47;8.60;99.90
32322;DHT22;61553;48.994;8.940;2023-12-28T05:10:13;8.60;99.90
32322;DHT22;61553;48.994;8.940;2023-12-28T05:12:38;8.80;99.90
32322;DHT22;61553;48.994;8.940;2023-12-28T05:15:04;8.80;99.90
32322;DHT22;61553;48.994;8.940;2023-12-28T05:17:30;8.90;99.90
32322;DHT22;61553;48.994;8.940;2023-12-28T05:19:56;9.00;99.90
32322;DHT22;61553;48.994;8.940;2023-12-28T05:22:22;9.10;99.90
32322;DHT22;61553;48.994;8.940;2023-12-28T05:24:47;9.20;99.90
32322;DHT22;61553;48.994;8.940;2023-12-28T05:27:13;9.30;99.90
32322;DHT22;61553;48.994;8.940;2023-12-28T05:29:38;9.30;99.90
32322;DHT22;61553;48.994;8.940;2023-12-28T05:32:05;9.40;99.90
32322;DHT22;61553;48.994;8.940;2023-12-28T05:34:30;9.50;99.90
32322;DHT22;61553;48.994;8.940;2023-12-28T05:36:56;9.60;99.90
32322;DHT22;61553;48.994;8.940;2023-12-28T05:39:22;9.60;99.90
32322;DHT22;61553;48.994;8.940;2023-12-28T05:41:47;9.70;99.90
32322;DHT22;61553;48.994;8.940;2023-12-28T05:44:15;9.70;99.90
32322;DHT22;61553;48.994;8.940;2023-12-28T05:46:41;9.80;99.90
32322;DHT22;61553;48.994;8.940;2023-12-28T05:49:07;9.80;99.90
32322;DHT22;61553;48.994;8.940;2023-12-28T05:51:39;9.80;99.90
32322;DHT22;61553;48.994;8.940;2023-12-28T05:54:08;9.70;99.90
32322;DHT22;61553;48.994;8.940;2023-12-28T05:56:34;9.80;99.90
32322;DHT22;61553;48.994;8.940;2023-12-28T05:59:00;9.80;99.90
32322;DHT22;61553;48.994;8.940;2023-12-28T06:01:26;9.70;99.90
32322;DHT22;61553;48.994;8.940;2023-12-28T06:03:53;9.80;99.90
32322;DHT22;61553;48.994;8.940;2023-12-28T06:06:19;9.90;99.90
32322;DHT22;61553;48.994;8.940;2023-12-28T06:08:45;9.90;99.90
32322;DHT22;61553;48.994;8.940;2023-12-28T06:11:10;10.00;99.90
32322;DHT22;61553;48.994;8.940;2023-12-28T06:13:36;10.00;99.90
32322;DHT22;61553;48.994;8.940;2023-12-28T06:16:02;10.10;99.90
32322;DHT22;61553;48.994;8.940;2023-12-28T06:18:27;10.00;99.90
32322;DHT22;61553;48.994;8.940;2023-12-28T06:20:53;10.00;99.90
32322;DHT22;61553;48.994;8.940;2023-12-28T06:23:18;9.90;99.90
32322;DHT22;61553;48.994;8.940;2023-12-28T06:25:44;9.80;99.90
32322;DHT22;61553;48.994;8.940;2023-12-28T06:28:10;9.80;99.90
32322;DHT22;61553;48.994;8.940;2023-12-28T06:30:35;9.80;99.90
32322;DHT22;61553;48.994;8.940;2023-12-28T06:33:01;9.80;99.90
32322;DHT22;61553;48.994;8.940;2023-12-28T06:35:26;9.70;99.90
32322;DHT22;61553;48.994;8.940;2023-12-28T06:37:52;9.70;99.90
32322;DHT22;61553;48.994;8.940;2023-12-28T06:40:18;9.70;99.90
32322;DHT22;61553;48.994;8.940;2023-12-28T06:42:43;9.70;99.90
32322;DHT22;61553;48.994;8.940;2023-12-28T06:45:10;9.60;99.90
32322;DHT22;61553;48.994;8.940;2023-12-28T06:47:35;9.70;99.90
32322;DHT22;61553;48.994;8.940;2023-12-28T06:50:01;9.70;99.90
32322;DHT22;61553;48.994;8.940;2023-12-28T06:52:27;9.80;99.90
32322;DHT22;61553;48.994;8.940;2023-12-28T06:54:52;9.90;99.90
32322;DHT22;61553;48.994;8.940;2023-12-28T06:57:19;9.90;99.90
32322;DHT22;61553;48.994;8.940;2023-12-28T06:59:44;9.90;99.90
32322;DHT22;61553;48.994;8.940;2023-12-28T07:02:10;9.90;99.90
32322;DHT22;61553;48.994;8.940;2023-12-28T07:04:36;9.90;99.90
32322;DHT22;61553;48.994;8.940;2023-12-28T07:07:01;9.80;99.90
32322;DHT22;61553;48.994;8.940;2023-12-28T07:09:27;9.90;99.90
32322;DHT22;61553;48.994;8.940;2023-12-28T07:11:52;9.80;99.90
32322;DHT22;61553;48.994;8.940;2023-12-28T07:14:18;9.80;99.90
32322;DHT22;61553;48.994;8.940;2023-12-28T07:16:43;9.80;99.90
32322;DHT22;61553;48.994;8.940;2023-12-28T07:19:09;9.70;99.90
32322;DHT22;61553;48.994;8.940;2023-12-28T07:21:35;9.60;99.90
32322;DHT22;61553;48.994;8.940;2023-12-28T07:24:00;9.60;99.90
32322;DHT22;61553;48.994;8.940;2023-12-28T07:26:26;9.50;99.90
32322;DHT22;61553;48.994;8.940;2023-12-28T07:28:51;9.40;99.90
32322;DHT22;61553;48.994;8.940;2023-12-28T07:31:27;9.40;99.90
32322;DHT22;61553;48.994;8.940;2023-12-28T07:33:53;9.30;99.90
32322;DHT22;61553;48.994;8.940;2023-12-28T07:36:19;9.20;99.90
32322;DHT22;61553;48.994;8.940;2023-12-28T07:38:45;9.10;99.90
32322;DHT22;61553;48.994;8.940;2023-12-28T07:41:10;9.10;99.90
32322;DHT22;61553;48.994;8.940;2023-12-28T07:43:36;9.00;99.90
32322;DHT22;61553;48.994;8.940;2023-12-28T07:46:02;9.00;99.90
32322;DHT22;61553;48.994;8.940;2023-12-28T07:48:28;8.90;99.90
32322;DHT22;61553;48.994;8.940;2023-12-28T07:50:58;8.90;99.90
32322;DHT22;61553;48.994;8.940;2023-12-28T07:53:24;8.80;99.90
32322;DHT22;61553;48.994;8.940;2023-12-28T07:55:50;8.80;99.90
32322;DHT22;61553;48.994;8.940;2023-12-28T07:58:15;8.70;99.90
32322;DHT22;61553;48.994;8.940;2023-12-28T08:00:41;8.70;99.90
32322;DHT22;61553;48.994;8.940;2023-12-28T08:03:07;8.60;99.90
32322;DHT22;61553;48.994;8.940;2023-12-28T08:05:32;8.60;99.90
32322;DHT22;61553;48.994;8.940;2023-12-28T08:07:58;8.60;99.90
32322;DHT22;61553;48.994;8.940;2023-12-28T08:10:24;8.60;99.90
32322;DHT22;61553;48.994;8.940;2023-12-28T08:12:49;8.60;99.90
32322;DHT22;61553;48.994;8.940;2023-12-28T08:15:15;8.50;99.90
32322;DHT22;61553;48.994;8.940;2023-12-28T08:17:40;8.50;99.90
32322;DHT22;61553;48.994;8.940;2023-12-28T08:20:06;8.40;99.90
32322;DHT22;61553;48.994;8.940;2023-12-28T08:22:32;8.50;99.90
32322;DHT22;61553;48.994;8.940;2023-12-28T08:24:58;8.40;99.90
32322;DHT22;61553;48.994;8.940;2023-12-28T08:27:24;8.40;99.90
32322;DHT22;61553;48.994;8.940;2023-12-28T08:29:50;8.40;99.90
32322;DHT22;61553;48.994;8.940;2023-12-28T08:32:15;8.30;99.90
32322;DHT22;61553;48.994;8.940;2023-12-28T08:34:42;8.30;99.90
32322;DHT22;61553;48.994;8.940;2023-12-28T08:37:08;8.30;99.90
32322;DHT22;61553;48.994;8.940;2023-12-28T08:39:33;8.30;99.90
32322;DHT22;61553;48.994;8.940;2023-12-28T08:41:59;8.30;99.90
32322;DHT22;61553;48.994;8.940;2023-12-28T08:44:25;8.30;99.90
32322;DHT22;61553;48.994;8.940;2023-12-28T08:46:51;8.30;99.90
32322;DHT22;61553;48.994;8.940;2023-12-28T08:49:16;8.30;99.90
32322;DHT22;61553;48.994;8.940;2023-12-28T08:51:42;8.30;99.90
32322;DHT22;61553;48.994;8.940;2023-12-28T08:54:08;8.40;99.90
32322;DHT22;61553;48.994;8.940;2023-12-28T08:56:34;8.40;99.90
32322;DHT22;61553;48.994;8.940;2023-12-28T08:59:01;8.40;99.90
32322;DHT22;61553;48.994;8.940;2023-12-28T09:01:26;8.50;99.90
32322;DHT22;61553;48.994;8.940;2023-12-28T09:03:53;8.60;99.90
32322;DHT22;61553;48.994;8.940;2023-12-28T09:06:20;8.60;99.90
32322;DHT22;61553;48.994;8.940;2023-12-28T09:08:49;8.60;99.90
32322;DHT22;61553;48.994;8.940;2023-12-28T09:11:16;8.70;99.90
32322;DHT22;61553;48.994;8.940;2023-12-28T09:13:41;8.90;99.90
32322;DHT22;61553;48.994;8.940;2023-12-28T09:16:09;9.00;99.90
32322;DHT22;61553;48.994;8.940;2023-12-28T09:18:36;9.10;99.90
32322;DHT22;61553;48.994;8.940;2023-12-28T09:21:03;9.20;99.90
32322;DHT22;61553;48.994;8.940;2023-12-28T09:23:29;9.20;99.90
32322;DHT22;61553;48.994;8.940;2023-12-28T09:25:54;9.20;99.90
32322;DHT22;61553;48.994;8.940;2023-12-28T09:28:20;9.30;99.90
32322;DHT22;61553;48.994;8.940;2023-12-28T09:30:46;9.40;99.90
32322;DHT22;61553;48.994;8.940;2023-12-28T09:33:11;9.40;99.90
32322;DHT22;61553;48.994;8.940;2023-12-28T09:35:37;9.40;99.90
32322;DHT22;61553;48.994;8.940;2023-12-28T09:38:03;9.40;99.90
32322;DHT22;61553;48.994;8.940;2023-12-28T09:40:28;9.50;99.90
32322;DHT22;61553;48.994;8.940;2023-12-28T09:43:08;9.50;99.90
32322;DHT22;61553;48.994;8.940;2023-12-28T09:45:37;9.50;99.90
32322;DHT22;61553;48.994;8.940;2023-12-28T09:48:03;9.40;99.90
32322;DHT22;61553;48.994;8.940;2023-12-28T09:50:30;9.40;99.90
32322;DHT22;61553;48.994;8.940;2023-12-28T09:52:55;9.40;99.90
32322;DHT22;61553;48.994;8.940;2023-12-28T09:55:22;9.50;99.90
32322;DHT22;61553;48.994;8.940;2023-12-28T09:57:47;9.50;99.90
32322;DHT22;61553;48.994;8.940;2023-12-28T10:00:13;9.50;99.90
32322;DHT22;61553;48.994;8.940;2023-12-28T10:02:40;9.60;99.90
32322;DHT22;61553;48.994;8.940;2023-12-28T10:05:12;9.70;99.90
32322;DHT22;61553;48.994;8.940;2023-12-28T10:07:45;9.70;99.90
32322;DHT22;61553;48.994;8.940;2023-12-28T10:10:11;9.70;99.90
32322;DHT22;61553;48.994;8.940;2023-12-28T10:12:37;9.80;99.90
32322;DHT22;61553;48.994;8.940;2023-12-28T10:15:04;9.90;99.90
32322;DHT22;61553;48.994;8.940;2023-12-28T10:17:33;9.90;99.90
32322;DHT22;61553;48.994;8.940;2023-12-28T10:19:59;9.90;99.90
32322;DHT22;61553;48.994;8.940;2023-12-28T10:22:30;10.00;99.90
32322;DHT22;61553;48.994;8.940;2023-12-28T10:24:56;10.00;99.90
32322;DHT22;61553;48.994;8.940;2023-12-28T10:27:22;10.10;99.90
32322;DHT22;61553;48.994;8.940;2023-12-28T10:29:48;10.20;99.90
32322;DHT22;61553;48.994;8.940;2023-12-28T10:32:13;10.20;99.90
32322;DHT22;61553;48.994;8.940;2023-12-28T10:34:39;10.20;99.90
32322;DHT22;61553;48.994;8.940;2023-12-28T10:37:05;10.30;99.90
32322;DHT22;61553;48.994;8.940;2023-12-28T10:39:32;10.50;99.90
32322;DHT22;61553;48.994;8.940;2023-12-28T10:42:00;10.60;99.90
32322;DHT22;61553;48.994;8.940;2023-12-28T10:44:32;10.90;99.90
32322;DHT22;61553;48.994;8.940;2023-12-28T10:47:01;11.10;99.90
32322;DHT22;61553;48.994;8.940;2023-12-28T10:49:30;11.10;99.90
32322;DHT22;61553;48.994;8.940;2023-12-28T10:51:55;11.40;99.90
32322;DHT22;61553;48.994;8.940;2023-12-28T10:54:51;11.50;99.90
32322;DHT22;61553;48.994;8.940;2023-12-28T10:57:40;11.50;99.90
32322;DHT22;61553;48.994;8.940;2023-12-28T11:00:11;11.40;99.90
32322;DHT22;61553;48.994;8.940;2023-12-28T11:02:44;11.20;99.90
32322;DHT22;61553;48.994;8.940;2023-12-28T11:05:11;11.00;99.90
32322;DHT22;61553;48.994;8.940;2023-12-28T11:07:38;10.80;99.90
32322;DHT22;61553;48.994;8.940;2023-12-28T11:10:06;10.80;99.90
32322;DHT22;61553;48.994;8.940;2023-12-28T11:12:33;10.70;99.90
32322;DHT22;61553;48.994;8.940;2023-12-28T11:14:59;10.70;99.90
32322;DHT22;61553;48.994;8.940;2023-12-28T11:17:25;10.70;99.90
32322;DHT22;61553;48.994;8.940;2023-12-28T11:19:53;10.70;99.90
32322;DHT22;61553;48.994;8.940;2023-12-28T11:22:20;10.70;99.90
32322;DHT22;61553;48.994;8.940;2023-12-28T11:24:46;10.70;99.90
32322;DHT22;61553;48.994;8.940;2023-12-28T11:27:11;10.70;99.90
32322;DHT22;61553;48.994;8.940;2023-12-28T11:29:38;10.70;99.90
32322;DHT22;61553;48.994;8.940;2023-12-28T11:32:04;10.70;99.90
32322;DHT22;61553;48.994;8.940;2023-12-28T11:34:31;10.70;99.90
32322;DHT22;61553;48.994;8.940;2023-12-28T11:37:04;10.70;99.90
32322;DHT22;61553;48.994;8.940;2023-12-28T11:39:31;10.70;99.90
32322;DHT22;61553;48.994;8.940;2023-12-28T11:42:06;10.70;99.90
32322;DHT22;61553;48.994;8.940;2023-12-28T11:44:39;10.70;99.90
32322;DHT22;61553;48.994;8.940;2023-12-28T11:47:24;10.70;99.90
32322;DHT22;61553;48.994;8.940;2023-12-28T11:49:50;10.60;99.90
32322;DHT22;61553;48.994;8.940;2023-12-28T11:52:30;10.50;99.90
32322;DHT22;61553;48.994;8.940;2023-12-28T11:54:55;10.60;99.90
32322;DHT22;61553;48.994;8.940;2023-12-28T11:57:22;10.60;99.90
32322;DHT22;61553;48.994;8.940;2023-12-28T11:59:54;10.60;99.90
32322;DHT22;61553;48.994;8.940;2023-12-28T12:02:20;10.70;99.90
32322;DHT22;61553;48.994;8.940;2023-12-28T12:04:46;10.70;99.90
32322;DHT22;61553;48.994;8.940;2023-12-28T12:07:13;10.60;99.90
32322;DHT22;61553;48.994;8.940;2023-12-28T12:09:38;10.70;99.90
32322;DHT22;61553;48.994;8.940;2023-12-28T12:12:04;10.70;99.90
32322;DHT22;61553;48.994;8.940;2023-12-28T12:14:30;10.70;99.90
32322;DHT22;61553;48.994;8.940;2023-12-28T12:17:00;10.70;99.90
32322;DHT22;61553;48.994;8.940;2023-12-28T12:19:26;10.60;99.90
32322;DHT22;61553;48.994;8.940;2023-12-28T12:21:52;10.50;99.90
32322;DHT22;61553;48.994;8.940;2023-12-28T12:24:19;10.50;99.90
32322;DHT22;61553;48.994;8.940;2023-12-28T12:26:46;10.50;99.90
32322;DHT22;61553;48.994;8.940;2023-12-28T12:29:12;10.60;99.90
32322;DHT22;61553;48.994;8.940;2023-12-28T12:31:37;10.60;99.90
32322;DHT22;61553;48.994;8.940;2023-12-28T12:34:07;10.60;99.90
32322;DHT22;61553;48.994;8.940;2023-12-28T12:36:33;10.60;99.90
32322;DHT22;61553;48.994;8.940;2023-12-28T12:38:59;10.60;99.90
32322;DHT22;61553;48.994;8.940;2023-12-28T12:41:26;10.60;99.90
32322;DHT22;61553;48.994;8.940;2023-12-28T12:43:51;10.50;99.90
32322;DHT22;61553;48.994;8.940;2023-12-28T12:46:17;10.50;99.90
32322;DHT22;61553;48.994;8.940;2023-12-28T12:48:53;10.50;99.90
32322;DHT22;61553;48.994;8.940;2023-12-28T12:51:19;10.50;99.90
32322;DHT22;61553;48.994;8.940;2023-12-28T12:53:45;10.50;99.90
32322;DHT22;61553;48.994;8.940;2023-12-28T12:56:10;10.50;99.90
32322;DHT22;61553;48.994;8.940;2023-12-28T12:58:36;10.40;99.90
32322;DHT22;61553;48.994;8.940;2023-12-28T13:01:01;10.40;99.90
32322;DHT22;61553;48.994;8.940;2023-12-28T13:03:28;10.40;99.90
32322;DHT22;61553;48.994;8.940;2023-12-28T13:05:57;10.40;99.90
32322;DHT22;61553;48.994;8.940;2023-12-28T13:08:23;10.30;99.90
32322;DHT22;61553;48.994;8.940;2023-12-28T13:10:48;10.30;99.90
32322;DHT22;61553;48.994;8.940;2023-12-28T13:13:15;10.30;99.90
32322;DHT22;61553;48.994;8.940;2023-12-28T13:15:41;10.40;99.90
32322;DHT22;61553;48.994;8.940;2023-12-28T13:18:06;10.30;99.90
32322;DHT22;61553;48.994;8.940;2023-12-28T13:20:33;10.30;99.90
32322;DHT22;61553;48.994;8.940;2023-12-28T13:22:58;10.30;99.90
32322;DHT22;61553;48.994;8.940;2023-12-28T13:25:24;10.10;99.90
32322;DHT22;61553;48.994;8.940;2023-12-28T13:27:50;10.00;99.90
32322;DHT22;61553;48.994;8.940;2023-12-28T13:30:16;10.10;99.90
32322;DHT22;61553;48.994;8.940;2023-12-28T13:32:42;10.00;99.90
32322;DHT22;61553;48.994;8.940;2023-12-28T13:35:07;10.10;99.90
32322;DHT22;61553;48.994;8.940;2023-12-28T13:37:33;10.00;99.90
32322;DHT22;61553;48.994;8.940;2023-12-28T13:39:59;10.00;99.90
32322;DHT22;61553;48.994;8.940;2023-12-28T13:42:24;9.90;99.90
32322;DHT22;61553;48.994;8.940;2023-12-28T13:44:50;9.90;99.90
32322;DHT22;61553;48.994;8.940;2023-12-28T13:47:15;9.80;99.90
32322;DHT22;61553;48.994;8.940;2023-12-28T13:49:41;9.90;99.90
32322;DHT22;61553;48.994;8.940;2023-12-28T13:52:06;9.80;99.90
32322;DHT22;61553;48.994;8.940;2023-12-28T13:54:32;9.80;99.90
32322;DHT22;61553;48.994;8.940;2023-12-28T13:56:58;9.70;99.90
32322;DHT22;61553;48.994;8.940;2023-12-28T13:59:25;9.70;99.90
32322;DHT22;61553;48.994;8.940;2023-12-28T14:01:50;9.60;99.90
32322;DHT22;61553;48.994;8.940;2023-12-28T14:04:16;9.60;99.90
32322;DHT22;61553;48.994;8.940;2023-12-28T14:06:41;9.60;99.90
32322;DHT22;61553;48.994;8.940;2023-12-28T14:09:07;9.50;99.90
32322;DHT22;61553;48.994;8.940;2023-12-28T14:11:34;9.50;99.90
32322;DHT22;61553;48.994;8.940;2023-12-28T14:13:59;9.40;99.90
32322;DHT22;61553;48.994;8.940;2023-12-28T14:16:25;9.40;99.90
32322;DHT22;61553;48.994;8.940;2023-12-28T14:18:50;9.40;99.90
32322;DHT22;61553;48.994;8.940;2023-12-28T14:21:18;9.30;99.90
32322;DHT22;61553;48.994;8.940;2023-12-28T14:23:44;9.30;99.90
32322;DHT22;61553;48.994;8.940;2023-12-28T14:26:13;9.30;99.90
32322;DHT22;61553;48.994;8.940;2023-12-28T14:28:40;9.20;99.90
32322;DHT22;61553;48.994;8.940;2023-12-28T14:31:08;9.30;99.90
32322;DHT22;61553;48.994;8.940;2023-12-28T14:33:34;9.30;99.90
32322;DHT22;61553;48.994;8.940;2023-12-28T14:36:01;9.30;99.90
32322;DHT22;61553;48.994;8.940;2023-12-28T14:38:28;9.40;99.90
32322;DHT22;61553;48.994;8.940;2023-12-28T14:40:54;9.40;99.90
32322;DHT22;61553;48.994;8.940;2023-12-28T14:43:21;9.40;99.90
32322;DHT22;61553;48.994;8.940;2023-12-28T14:45:46;9.40;99.90
32322;DHT22;61553;48.994;8.940;2023-12-28T14:48:13;9.40;99.90
32322;DHT22;61553;48.994;8.940;2023-12-28T14:50:38;9.40;99.90
32322;DHT22;61553;48.994;8.940;2023-12-28T14:53:04;9.40;99.90
32322;DHT22;61553;48.994;8.940;2023-12-28T14:55:30;9.50;99.90
32322;DHT22;61553;48.994;8.940;2023-12-28T14:57:55;9.50;99.90
32322;DHT22;61553;48.994;8.940;2023-12-28T15:00:21;9.40;99.90
32322;DHT22;61553;48.994;8.940;2023-12-28T15:02:47;9.50;99.90
32322;DHT22;61553;48.994;8.940;2023-12-28T15:05:12;9.50;99.90
32322;DHT22;61553;48.994;8.940;2023-12-28T15:07:38;9.50;99.90
32322;DHT22;61553;48.994;8.940;2023-12-28T15:10:05;9.40;99.90
32322;DHT22;61553;48.994;8.940;2023-12-28T15:12:32;9.40;99.90
32322;DHT22;61553;48.994;8.940;2023-12-28T15:14:58;9.40;99.90
32322;DHT22;61553;48.994;8.940;2023-12-28T15:17:23;9.40;99.90
32322;DHT22;61553;48.994;8.940;2023-12-28T15:19:50;9.40;99.90
32322;DHT22;61553;48.994;8.940;2023-12-28T15:22:16;9.40;99.90
32322;DHT22;61553;48.994;8.940;2023-12-28T15:24:42;9.40;99.90
32322;DHT22;61553;48.994;8.940;2023-12-28T15:27:08;9.40;99.90
32322;DHT22;61553;48.994;8.940;2023-12-28T15:29:33;9.40;99.90
32322;DHT22;61553;48.994;8.940;2023-12-28T15:31:59;9.40;99.90
32322;DHT22;61553;48.994;8.940;2023-12-28T15:34:25;9.40;99.90
32322;DHT22;61553;48.994;8.940;2023-12-28T15:36:50;9.40;99.90